createdAt,value
2023-03-29T00:00:52.585Z,4.47
2023-03-29T00:03:19.360Z,4.10
2023-03-29T00:05:46.366Z,4.43
2023-03-29T00:08:14.852Z,4.60
2023-03-29T00:10:42.374Z,4.70
2023-03-29T00:13:09.042Z,4.65
2023-03-29T00:15:35.688Z,4.72
2023-03-29T00:18:02.342Z,4.87
2023-03-29T00:20:29.056Z,4.53
2023-03-29T00:22:55.710Z,5.18
2023-03-29T00:25:22.342Z,4.75
2023-03-29T00:27:49.170Z,4.85
2023-03-29T00:30:16.284Z,4.70
2023-03-29T00:32:43.262Z,5.15
2023-03-29T00:35:10.912Z,4.82
2023-03-29T00:37:38.019Z,4.70
2023-03-29T00:40:09.567Z,4.50
2023-03-29T00:42:36.637Z,4.37
2023-03-29T00:45:12.103Z,4.85
2023-03-29T00:47:48.664Z,4.65
2023-03-29T00:50:45.422Z,4.93
2023-03-29T00:53:26.262Z,4.72
2023-03-29T00:56:26.246Z,4.90
2023-03-29T00:59:19.084Z,4.38
2023-03-29T01:01:56.896Z,4.60
2023-03-29T01:04:36.183Z,4.40
2023-03-29T01:07:05.483Z,4.45
2023-03-29T01:09:35.426Z,4.17
2023-03-29T01:12:08.597Z,5.20
2023-03-29T01:14:41.767Z,4.47
2023-03-29T01:17:08.826Z,4.50
2023-03-29T01:19:42.177Z,4.22
2023-03-29T01:22:28.318Z,3.83
2023-03-29T01:25:03.483Z,4.68
2023-03-29T01:27:53.868Z,4.10
2023-03-29T01:30:33.523Z,4.10
2023-03-29T01:33:09.919Z,4.20
2023-03-29T01:35:48.353Z,4.50
2023-03-29T01:38:24.403Z,4.35
2023-03-29T01:40:51.548Z,3.88
2023-03-29T01:43:44.704Z,4.22
2023-03-29T01:46:21.405Z,4.22
2023-03-29T01:49:01.576Z,4.03
2023-03-29T01:51:38.461Z,4.18
2023-03-29T01:54:11.917Z,4.00
2023-03-29T01:56:43.347Z,4.30
2023-03-29T01:59:14.624Z,4.38
2023-03-29T02:01:49.284Z,3.63
2023-03-29T02:04:22.690Z,3.38
2023-03-29T02:06:54.070Z,3.60
2023-03-29T02:09:21.221Z,3.80
2023-03-29T02:11:49.488Z,3.42
2023-03-29T02:14:16.902Z,3.73
2023-03-29T02:16:46.332Z,4.03
2023-03-29T02:19:13.523Z,3.65
2023-03-29T02:22:03.451Z,3.55
2023-03-29T02:24:33.577Z,3.90
2023-03-29T02:27:01.161Z,3.72
2023-03-29T02:29:27.796Z,3.20
2023-03-29T02:32:10.169Z,3.58
2023-03-29T02:34:51.982Z,3.80
2023-03-29T02:37:20.464Z,3.40
2023-03-29T02:39:49.674Z,3.37
2023-03-29T02:42:20.193Z,3.83
2023-03-29T02:44:49.482Z,3.65
2023-03-29T02:47:21.272Z,3.28
2023-03-29T02:49:47.897Z,3.50
2023-03-29T02:52:19.817Z,3.50
2023-03-29T02:54:50.277Z,3.83
2023-03-29T02:57:17.447Z,3.30
2023-03-29T02:59:44.934Z,3.47
2023-03-29T03:02:11.838Z,3.50
2023-03-29T03:04:38.457Z,4.13
2023-03-29T03:07:05.300Z,3.50
2023-03-29T03:09:31.865Z,3.60
2023-03-29T03:11:58.457Z,3.45
2023-03-29T03:14:25.008Z,2.95
2023-03-29T03:16:52.787Z,3.53
2023-03-29T03:19:19.823Z,3.13
2023-03-29T03:21:47.042Z,3.38
2023-03-29T03:24:13.619Z,3.30
2023-03-29T03:26:40.300Z,3.40
2023-03-29T03:29:06.924Z,3.13
2023-03-29T03:31:33.602Z,2.90
2023-03-29T03:34:00.837Z,3.30
2023-03-29T03:36:29.116Z,2.70
2023-03-29T03:38:55.709Z,3.20
2023-03-29T03:41:22.777Z,3.10
2023-03-29T03:43:49.586Z,2.80
2023-03-29T03:46:17.142Z,2.67
2023-03-29T03:48:45.115Z,2.40
2023-03-29T03:51:11.789Z,2.63
2023-03-29T03:53:38.462Z,3.10
2023-03-29T03:56:08.886Z,3.20
2023-03-29T03:58:36.581Z,2.88
2023-03-29T04:01:04.135Z,2.58
2023-03-29T04:03:31.660Z,2.40
2023-03-29T04:06:02.374Z,3.07
2023-03-29T04:08:29.090Z,2.95
2023-03-29T04:10:57.488Z,3.00
2023-03-29T04:13:25.712Z,2.95
2023-03-29T04:15:55.672Z,3.00
2023-03-29T04:18:24.049Z,2.90
2023-03-29T04:20:50.943Z,3.22
2023-03-29T04:23:17.831Z,2.97
2023-03-29T04:25:44.862Z,3.03
2023-03-29T04:28:12.689Z,2.85
2023-03-29T04:30:39.428Z,3.63
2023-03-29T04:33:06.373Z,3.50
2023-03-29T04:35:33.292Z,3.85
2023-03-29T04:38:00.237Z,3.75
2023-03-29T04:40:26.746Z,3.63
2023-03-29T04:42:54.319Z,3.57
2023-03-29T04:45:21.138Z,4.43
2023-03-29T04:47:47.842Z,3.85
2023-03-29T04:50:14.510Z,3.80
2023-03-29T04:52:41.332Z,3.65
2023-03-29T04:55:08.385Z,4.38
2023-03-29T04:57:34.950Z,4.03
2023-03-29T05:00:01.803Z,4.35
2023-03-29T05:02:32.151Z,5.10
2023-03-29T05:04:58.774Z,4.72
2023-03-29T05:07:25.337Z,4.60
2023-03-29T05:09:51.975Z,4.57
2023-03-29T05:12:18.622Z,4.60
2023-03-29T05:14:45.619Z,4.50
2023-03-29T05:17:12.179Z,4.80
2023-03-29T05:19:38.670Z,5.50
2023-03-29T05:22:05.299Z,4.93
2023-03-29T05:24:31.976Z,5.05
2023-03-29T05:26:58.484Z,4.60
2023-03-29T05:29:25.221Z,5.65
2023-03-29T05:34:18.894Z,5.68
2023-03-29T05:36:45.718Z,4.72
2023-03-29T05:39:12.322Z,4.97
2023-03-29T05:41:38.960Z,4.90
2023-03-29T05:44:06.483Z,4.87
2023-03-29T05:46:33.062Z,4.40
2023-03-29T05:48:59.729Z,4.57
2023-03-29T05:51:26.500Z,4.70
2023-03-29T05:53:54.044Z,4.38
2023-03-29T05:56:22.382Z,4.70
2023-03-29T05:58:50.984Z,4.13
2023-03-29T06:01:18.884Z,4.70
2023-03-29T06:03:48.160Z,4.72
2023-03-29T06:06:16.370Z,4.90
2023-03-29T06:08:44.072Z,4.60
2023-03-29T06:11:13.226Z,4.70
2023-03-29T06:13:41.388Z,5.10
2023-03-29T06:16:09.908Z,4.30
2023-03-29T06:18:41.081Z,4.38
2023-03-29T06:21:09.086Z,4.05
2023-03-29T06:23:36.377Z,4.30
2023-03-29T06:26:03.271Z,4.10
2023-03-29T06:28:29.860Z,4.30
2023-03-29T06:30:56.854Z,4.30
2023-03-29T06:33:25.144Z,4.20
2023-03-29T06:35:51.814Z,4.10
2023-03-29T06:38:19.445Z,4.47
2023-03-29T06:40:47.232Z,4.13
2023-03-29T06:43:14.166Z,4.15
2023-03-29T06:45:40.835Z,4.10
2023-03-29T06:48:08.155Z,4.20
2023-03-29T06:50:35.573Z,3.95
2023-03-29T06:53:02.583Z,3.97
2023-03-29T06:55:29.256Z,3.75
2023-03-29T06:57:55.785Z,3.53
2023-03-29T07:00:29.721Z,3.55
2023-03-29T07:02:58.900Z,3.22
2023-03-29T07:05:29.202Z,2.90
2023-03-29T07:08:13.700Z,3.17
2023-03-29T07:10:43.341Z,2.80
2023-03-29T07:13:15.507Z,2.65
2023-03-29T07:15:43.694Z,2.63
2023-03-29T07:18:12.387Z,2.38
2023-03-29T07:20:39.043Z,2.63
2023-03-29T07:23:06.874Z,2.63
2023-03-29T07:25:33.929Z,2.15
2023-03-29T07:28:00.471Z,2.35
2023-03-29T07:30:31.655Z,2.53
2023-03-29T07:32:59.458Z,2.20
2023-03-29T07:35:26.701Z,2.30
2023-03-29T07:37:55.433Z,2.10
2023-03-29T07:40:26.138Z,2.33
2023-03-29T07:42:55.130Z,2.20
2023-03-29T07:45:26.840Z,2.20
2023-03-29T07:47:59.495Z,2.38
2023-03-29T07:50:27.696Z,2.75
2023-03-29T07:52:54.662Z,2.20
2023-03-29T07:55:22.028Z,1.80
2023-03-29T07:57:49.385Z,2.22
2023-03-29T08:00:17.216Z,1.52
2023-03-29T08:02:49.682Z,2.10
2023-03-29T08:05:26.067Z,2.67
2023-03-29T08:08:00.846Z,2.17
2023-03-29T08:10:28.410Z,2.30
2023-03-29T08:12:55.209Z,2.50
2023-03-29T08:15:21.814Z,2.60
2023-03-29T08:17:48.544Z,2.90
2023-03-29T08:20:19.219Z,2.67
2023-03-29T08:22:45.869Z,2.50
2023-03-29T08:25:12.846Z,2.75
2023-03-29T08:27:39.590Z,2.55
2023-03-29T08:30:09.345Z,2.33
2023-03-29T08:32:36.936Z,2.55
2023-03-29T08:35:04.872Z,2.85
2023-03-29T08:37:32.545Z,2.25
2023-03-29T08:40:00.836Z,2.50
2023-03-29T08:42:33.113Z,2.60
2023-03-29T08:45:21.846Z,2.40
2023-03-29T08:48:08.728Z,2.25
2023-03-29T08:50:38.357Z,2.25
2023-03-29T08:53:12.441Z,2.83
2023-03-29T08:55:42.846Z,2.40
2023-03-29T08:58:20.139Z,2.35
2023-03-29T09:00:59.101Z,2.47
2023-03-29T09:03:31.417Z,2.28
2023-03-29T09:06:03.710Z,2.72
2023-03-29T09:08:30.969Z,2.45
2023-03-29T09:11:18.985Z,2.50
2023-03-29T09:14:09.960Z,2.50
2023-03-29T09:16:54.858Z,2.22
2023-03-29T09:19:43.421Z,2.05
2023-03-29T09:22:30.218Z,2.13
2023-03-29T09:25:13.949Z,2.20
2023-03-29T09:27:46.715Z,2.78
2023-03-29T09:30:30.671Z,4.43
2023-03-29T09:33:03.354Z,3.40
2023-03-29T09:35:37.376Z,2.95
2023-03-29T09:38:09.440Z,2.40
2023-03-29T09:40:47.902Z,2.53
2023-03-29T09:43:18.480Z,2.47
2023-03-29T09:45:51.093Z,2.42
2023-03-29T09:48:19.658Z,2.80
2023-03-29T09:50:48.231Z,2.50
2023-03-29T09:53:16.123Z,2.00
2023-03-29T09:55:44.578Z,2.40
2023-03-29T09:58:22.686Z,2.63
2023-03-29T10:00:49.951Z,2.58
2023-03-29T10:03:21.096Z,2.80
2023-03-29T10:05:49.944Z,2.53
2023-03-29T10:08:22.299Z,2.70
2023-03-29T10:10:49.174Z,2.30
2023-03-29T10:13:22.957Z,1.98
2023-03-29T10:16:07.850Z,2.30
2023-03-29T10:18:40.695Z,2.38
2023-03-29T10:21:10.319Z,2.00
2023-03-29T10:23:38.021Z,2.08
2023-03-29T10:26:11.568Z,2.38
2023-03-29T10:28:38.540Z,2.30
2023-03-29T10:31:07.984Z,2.10
2023-03-29T10:33:36.113Z,2.35
2023-03-29T10:36:07.534Z,2.30
2023-03-29T10:38:36.300Z,2.33
2023-03-29T10:41:06.717Z,2.22
2023-03-29T10:43:44.496Z,2.50
2023-03-29T10:46:19.476Z,2.40
2023-03-29T10:48:49.640Z,1.80
2023-03-29T10:51:18.192Z,2.17
2023-03-29T10:53:44.906Z,1.95
2023-03-29T10:56:29.460Z,1.80
2023-03-29T10:59:21.540Z,2.00
2023-03-29T11:02:16.965Z,1.92
2023-03-29T11:05:05.839Z,2.20
2023-03-29T11:07:36.491Z,2.00
2023-03-29T11:10:21.667Z,1.98
2023-03-29T11:13:12.650Z,2.00
2023-03-29T11:15:52.502Z,2.20
2023-03-29T11:18:22.265Z,1.92
2023-03-29T11:20:52.829Z,2.00
2023-03-29T11:23:22.346Z,2.17
2023-03-29T11:26:20.475Z,2.00
2023-03-29T11:28:57.645Z,2.78
2023-03-29T11:31:53.650Z,1.88
2023-03-29T11:34:35.412Z,2.00
2023-03-29T11:37:19.322Z,1.58
2023-03-29T11:40:26.728Z,1.83
2023-03-29T11:42:56.803Z,2.42
2023-03-29T11:45:52.614Z,1.23
2023-03-29T11:48:28.939Z,2.20
2023-03-29T11:51:07.735Z,1.70
2023-03-29T11:53:51.187Z,1.90
2023-03-29T11:56:29.126Z,1.73
2023-03-29T11:59:02.456Z,1.75
2023-03-29T12:01:37.526Z,1.67
2023-03-29T12:04:10.911Z,1.73
2023-03-29T12:07:11.181Z,1.70
2023-03-29T12:09:49.961Z,1.70
2023-03-29T12:12:38.194Z,2.10
2023-03-29T12:15:15.403Z,1.77
2023-03-29T12:17:47.116Z,3.15
2023-03-29T12:20:26.692Z,1.70
2023-03-29T12:22:54.215Z,3.42
2023-03-29T12:25:26.757Z,1.35
2023-03-29T12:28:25.492Z,2.47
2023-03-29T12:31:07.158Z,1.70
2023-03-29T12:34:07.594Z,1.70
2023-03-29T12:36:46.290Z,1.80
2023-03-29T12:39:18.729Z,2.20
2023-03-29T12:41:49.177Z,2.20
2023-03-29T12:44:20.409Z,2.47
2023-03-29T12:46:50.994Z,1.63
2023-03-29T12:49:38.865Z,2.20
2023-03-29T12:52:23.245Z,2.20
2023-03-29T12:54:55.376Z,2.28
2023-03-29T12:57:29.078Z,3.10
2023-03-29T12:59:56.340Z,1.95
2023-03-29T13:02:22.894Z,2.53
2023-03-29T13:04:57.918Z,1.95
2023-03-29T13:07:26.362Z,2.25
2023-03-29T13:10:20.718Z,1.95
2023-03-29T13:12:50.211Z,1.80
2023-03-29T13:15:16.845Z,2.30
2023-03-29T13:18:06.123Z,2.22
2023-03-29T13:20:37.245Z,2.10
2023-03-29T13:23:18.958Z,2.00
2023-03-29T13:26:19.632Z,2.65
2023-03-29T13:29:25.300Z,3.80
2023-03-29T13:32:14.625Z,2.17
2023-03-29T13:34:53.801Z,2.17
2023-03-29T13:37:34.577Z,2.03
2023-03-29T13:40:01.709Z,2.08
2023-03-29T13:42:37.017Z,1.88
2023-03-29T13:45:16.702Z,2.20
2023-03-29T13:47:54.920Z,1.90
2023-03-29T13:50:40.654Z,1.85
2023-03-29T13:53:24.856Z,1.50
2023-03-29T13:55:54.024Z,1.45
2023-03-29T13:58:27.641Z,2.03
2023-03-29T14:01:38.097Z,1.60
2023-03-29T14:04:08.248Z,1.50
2023-03-29T14:06:37.131Z,1.50
2023-03-29T14:09:07.194Z,1.75
2023-03-29T14:11:34.061Z,1.75
2023-03-29T14:14:04.993Z,1.65
2023-03-29T14:16:35.218Z,1.77
2023-03-29T14:19:13.353Z,1.75
2023-03-29T14:21:41.454Z,2.05
2023-03-29T14:24:15.022Z,1.80
2023-03-29T14:26:46.709Z,2.08
2023-03-29T14:29:13.983Z,1.20
2023-03-29T14:31:42.055Z,1.48
2023-03-29T14:34:18.543Z,1.55
2023-03-29T14:36:48.622Z,2.70
2023-03-29T14:39:18.305Z,1.83
2023-03-29T14:41:56.824Z,1.65
2023-03-29T14:44:34.680Z,1.58
2023-03-29T14:47:02.873Z,1.77
2023-03-29T14:49:29.976Z,1.75
2023-03-29T14:51:57.152Z,2.00
2023-03-29T14:54:29.654Z,2.00
2023-03-29T14:56:56.346Z,2.20
2023-03-29T14:59:40.840Z,3.72
2023-03-29T15:02:26.139Z,3.50
2023-03-29T15:04:58.872Z,2.45
2023-03-29T15:07:28.095Z,1.90
2023-03-29T15:09:56.262Z,2.10
2023-03-29T15:12:23.439Z,2.95
2023-03-29T15:14:53.284Z,2.55
2023-03-29T15:17:47.736Z,1.58
2023-03-29T15:20:25.729Z,2.25
2023-03-29T15:23:20.593Z,2.70
2023-03-29T15:25:52.276Z,2.58
2023-03-29T15:28:26.389Z,8.48
2023-03-29T15:31:07.209Z,6.18
2023-03-29T15:33:36.009Z,5.70
2023-03-29T15:36:04.939Z,3.67
2023-03-29T15:38:42.545Z,4.13
2023-03-29T15:41:11.512Z,2.92
2023-03-29T15:43:38.023Z,5.88
2023-03-29T15:46:05.181Z,4.78
2023-03-29T15:48:33.552Z,2.88
2023-03-29T15:51:03.741Z,2.65
2023-03-29T15:53:32.226Z,3.20
2023-03-29T15:56:03.935Z,2.88
2023-03-29T15:58:32.639Z,3.10
2023-03-29T16:01:35.475Z,5.15
2023-03-29T16:04:04.170Z,3.15
2023-03-29T16:06:31.892Z,3.20
2023-03-29T16:08:58.357Z,2.90
2023-03-29T16:11:24.979Z,6.30
2023-03-29T16:13:51.589Z,4.30
2023-03-29T16:16:18.241Z,3.03
2023-03-29T16:18:44.845Z,3.65
2023-03-29T16:21:14.346Z,3.33
2023-03-29T16:23:42.905Z,3.30
2023-03-29T16:26:12.787Z,3.50
2023-03-29T16:28:39.944Z,3.13
2023-03-29T16:31:06.929Z,3.45
2023-03-29T16:33:33.616Z,5.20
2023-03-29T16:36:00.577Z,3.88
2023-03-29T16:38:29.189Z,5.22
2023-03-29T16:40:55.967Z,3.60
2023-03-29T16:43:22.556Z,3.72
2023-03-29T16:45:49.218Z,4.22
2023-03-29T16:48:17.508Z,4.25
2023-03-29T16:50:48.598Z,4.32
2023-03-29T16:53:19.877Z,4.20
2023-03-29T16:55:47.451Z,4.30
2023-03-29T16:58:15.205Z,4.22
2023-03-29T17:00:41.945Z,4.47
2023-03-29T17:03:08.894Z,4.80
2023-03-29T17:05:41.135Z,3.90
2023-03-29T17:08:10.012Z,7.50
2023-03-29T17:10:40.698Z,10.43
2023-03-29T17:13:08.083Z,11.02
2023-03-29T17:15:37.361Z,8.90
2023-03-29T17:18:05.887Z,5.60
2023-03-29T17:20:32.454Z,7.63
2023-03-29T17:23:08.755Z,5.60
2023-03-29T17:25:35.706Z,5.40
2023-03-29T17:28:02.855Z,6.90
2023-03-29T17:30:29.484Z,6.78
2023-03-29T17:32:56.102Z,7.40
2023-03-29T17:35:22.701Z,6.50
2023-03-29T17:37:49.483Z,6.05
2023-03-29T17:40:17.153Z,6.05
2023-03-29T17:42:48.677Z,6.32
2023-03-29T17:45:15.812Z,6.05
2023-03-29T17:47:42.420Z,6.00
2023-03-29T17:50:11.395Z,5.60
2023-03-29T17:52:39.577Z,6.10
2023-03-29T17:55:16.293Z,5.47
2023-03-29T17:57:43.736Z,6.20
2023-03-29T18:00:13.439Z,5.68
2023-03-29T18:02:41.936Z,6.20
2023-03-29T18:05:10.080Z,6.40
2023-03-29T18:07:37.343Z,6.70
2023-03-29T18:10:04.548Z,6.28
2023-03-29T18:12:31.475Z,6.63
2023-03-29T18:14:58.346Z,6.40
2023-03-29T18:17:27.196Z,5.00
2023-03-29T18:19:54.059Z,4.93
2023-03-29T18:22:21.605Z,5.00
2023-03-29T18:24:49.192Z,4.80
2023-03-29T18:27:15.967Z,4.70
2023-03-29T18:29:43.931Z,4.90
2023-03-29T18:32:11.067Z,5.20
2023-03-29T18:34:39.074Z,5.00
2023-03-29T18:37:06.010Z,5.55
2023-03-29T18:39:34.482Z,4.97
2023-03-29T18:42:01.604Z,5.25
2023-03-29T18:44:28.828Z,5.30
2023-03-29T18:46:56.232Z,5.07
2023-03-29T18:49:22.990Z,5.65
2023-03-29T18:51:49.920Z,5.30
2023-03-29T18:54:17.073Z,4.88
2023-03-29T18:56:43.631Z,5.50
2023-03-29T18:59:10.173Z,6.30
2023-03-29T19:01:36.764Z,5.80
2023-03-29T19:04:03.478Z,5.50
2023-03-29T19:06:30.424Z,5.68
2023-03-29T19:08:59.472Z,5.88
2023-03-29T19:11:27.701Z,6.63
2023-03-29T19:13:55.823Z,6.60
2023-03-29T19:16:22.564Z,6.53
2023-03-29T19:18:49.357Z,5.85
2023-03-29T19:21:15.944Z,5.97
2023-03-29T19:23:42.629Z,5.75
2023-03-29T19:26:11.493Z,6.25
2023-03-29T19:28:37.991Z,6.00
2023-03-29T19:31:04.564Z,5.93
2023-03-29T19:33:31.502Z,5.63
2023-03-29T19:35:58.072Z,5.43
2023-03-29T19:38:24.800Z,5.60
2023-03-29T19:40:51.735Z,5.40
2023-03-29T19:43:18.776Z,5.40
2023-03-29T19:45:47.178Z,5.20
2023-03-29T19:48:21.921Z,4.95
2023-03-29T19:50:50.111Z,5.45
2023-03-29T19:53:16.722Z,5.55
2023-03-29T19:55:44.917Z,5.10
2023-03-29T19:58:11.946Z,4.97
2023-03-29T20:00:38.899Z,5.38
2023-03-29T20:03:09.521Z,5.43
2023-03-29T20:05:38.316Z,5.00
2023-03-29T20:08:05.084Z,5.20
2023-03-29T20:10:32.193Z,5.70
2023-03-29T20:12:58.939Z,5.22
2023-03-29T20:15:25.932Z,5.15
2023-03-29T20:17:54.165Z,5.60
2023-03-29T20:20:23.956Z,4.90
2023-03-29T20:23:04.406Z,5.50
2023-03-29T20:25:32.538Z,6.47
2023-03-29T20:27:59.616Z,6.20
2023-03-29T20:30:26.309Z,6.03
2023-03-29T20:32:53.004Z,6.35
2023-03-29T20:35:19.767Z,7.63
2023-03-29T20:37:46.256Z,7.07
2023-03-29T20:40:13.761Z,7.00
2023-03-29T20:42:41.099Z,6.97
2023-03-29T20:45:08.782Z,7.03
2023-03-29T20:47:42.217Z,7.00
2023-03-29T20:50:10.413Z,6.82
2023-03-29T20:52:36.937Z,7.18
2023-03-29T20:55:04.145Z,6.90
2023-03-29T20:57:30.688Z,6.50
2023-03-29T20:59:57.722Z,7.10
2023-03-29T21:02:24.312Z,7.25
2023-03-29T21:04:52.453Z,6.70
2023-03-29T21:07:20.300Z,7.40
2023-03-29T21:09:49.672Z,7.13
2023-03-29T21:12:16.718Z,6.72
2023-03-29T21:14:43.529Z,7.35
2023-03-29T21:17:10.291Z,7.05
2023-03-29T21:19:38.212Z,7.55
2023-03-29T21:22:05.025Z,7.80
2023-03-29T21:24:32.995Z,7.63
2023-03-29T21:26:59.915Z,7.75
2023-03-29T21:29:26.542Z,7.18
2023-03-29T21:31:53.191Z,7.85
2023-03-29T21:34:19.837Z,7.82
2023-03-29T21:36:46.530Z,7.88
2023-03-29T21:39:13.122Z,7.88
2023-03-29T21:41:39.659Z,8.35
2023-03-29T21:44:06.354Z,8.10
2023-03-29T21:46:33.075Z,7.68
2023-03-29T21:48:59.629Z,8.05
2023-03-29T21:51:26.987Z,8.20
2023-03-29T21:53:53.556Z,7.90
2023-03-29T21:56:20.083Z,8.07
2023-03-29T21:58:46.602Z,7.90
2023-03-29T22:01:13.155Z,8.32
2023-03-29T22:03:39.720Z,8.90
2023-03-29T22:06:09.344Z,8.13
2023-03-29T22:08:41.404Z,8.27
2023-03-29T22:11:14.081Z,8.07
2023-03-29T22:13:41.228Z,8.27
2023-03-29T22:16:08.625Z,8.00
2023-03-29T22:18:43.229Z,7.88
2023-03-29T22:21:15.275Z,8.07
2023-03-29T22:23:43.709Z,8.68
2023-03-29T22:26:12.323Z,8.80
2023-03-29T22:28:39.608Z,8.32
2023-03-29T22:31:12.413Z,8.80
2023-03-29T22:33:39.793Z,8.60
2023-03-29T22:36:21.712Z,8.50
2023-03-29T22:38:50.490Z,7.95
2023-03-29T22:41:18.778Z,7.95
2023-03-29T22:43:45.403Z,7.78
2023-03-29T22:46:13.537Z,7.75
2023-03-29T22:48:40.644Z,8.30
2023-03-29T22:51:07.451Z,7.78
2023-03-29T22:53:34.397Z,7.40
2023-03-29T22:56:01.309Z,7.32
2023-03-29T22:58:29.315Z,7.82
2023-03-29T23:00:57.128Z,7.20
2023-03-29T23:03:23.905Z,7.80
2023-03-29T23:05:52.287Z,7.97
2023-03-29T23:08:18.844Z,8.00
2023-03-29T23:10:46.977Z,7.80
2023-03-29T23:13:19.839Z,7.55
2023-03-29T23:15:48.466Z,7.93
2023-03-29T23:18:18.476Z,7.85
2023-03-29T23:20:47.113Z,7.65
2023-03-29T23:23:15.323Z,7.72
2023-03-29T23:25:47.401Z,8.10
2023-03-29T23:28:16.625Z,7.70
2023-03-29T23:30:43.490Z,8.07
2023-03-29T23:33:10.434Z,7.68
2023-03-29T23:35:37.510Z,8.10
2023-03-29T23:38:05.447Z,7.63
2023-03-29T23:40:33.087Z,7.60
2023-03-29T23:42:59.743Z,7.82
2023-03-29T23:45:30.057Z,7.55
2023-03-29T23:47:57.034Z,7.28
2023-03-29T23:50:23.920Z,7.68
2023-03-29T23:52:51.452Z,7.93
2023-03-29T23:55:18.878Z,8.00
2023-03-29T23:57:45.601Z,7.70
